Time;durP1;ratioP1;P1;durP2;ratioP2;P2;SDS_P1;SDS_P2;PMS_P1;PMS_P2;Temp;Humidity;BMP_temperature;BMP_pressure;BME280_temperature;BME280_humidity;BME280_pressure;Samples;Min_cycle;Max_cycle;Signal;HPM_P1;HPM_P2
2020/12/16 00:02:19;;;;;;;1.77;1.67;;;9.00;99.90;;;;;;5074973;28;20162;-77
2020/12/16 00:04:47;;;;;;;2.53;2.28;;;9.00;99.90;;;;;;5075111;28;20206;-76
2020/12/16 00:07:12;;;;;;;5.78;1.52;;;9.00;99.90;;;;;;5056308;28;20166;-76
2020/12/16 00:09:38;;;;;;;0.70;0.70;;;9.10;99.90;;;;;;5074595;28;20629;-76
2020/12/16 00:12:04;;;;;;;4.63;3.05;;;9.00;99.90;;;;;;5074524;28;20589;-77
2020/12/16 00:14:29;;;;;;;2.95;2.65;;;9.10;99.90;;;;;;5073499;28;20277;-77
2020/12/16 00:16:55;;;;;;;2.63;1.05;;;9.00;99.90;;;;;;5056030;28;20162;-76
2020/12/16 00:19:20;;;;;;;1.63;1.52;;;9.10;99.90;;;;;;5074386;28;20232;-77
2020/12/16 00:21:46;;;;;;;1.30;1.30;;;9.00;99.90;;;;;;5056472;28;20170;-76
2020/12/16 00:24:12;;;;;;;1.02;1.02;;;9.00;99.90;;;;;;5073953;28;20267;-77
2020/12/16 00:26:37;;;;;;;1.45;1.35;;;9.00;99.90;;;;;;5073917;28;20165;-76
2020/12/16 00:29:03;;;;;;;0.60;0.60;;;9.20;99.90;;;;;;5056409;28;20179;-75
2020/12/16 00:31:28;;;;;;;8.55;1.42;;;9.20;99.90;;;;;;5074665;28;20162;-76
2020/12/16 00:33:55;;;;;;;1.58;1.40;;;9.10;99.90;;;;;;5073910;28;20297;-76
2020/12/16 00:36:21;;;;;;;1.05;1.00;;;9.20;99.90;;;;;;5073663;28;20630;-76
2020/12/16 00:38:46;;;;;;;6.95;1.40;;;9.30;99.90;;;;;;5074146;28;20238;-76
2020/12/16 00:41:12;;;;;;;2.28;1.13;;;9.30;99.90;;;;;;5073904;28;20245;-77
2020/12/16 00:43:37;;;;;;;1.10;1.10;;;9.30;99.90;;;;;;5073451;28;20283;-76
2020/12/16 00:46:03;;;;;;;3.75;1.08;;;9.10;99.90;;;;;;5073694;28;20162;-77
2020/12/16 00:48:28;;;;;;;0.70;0.70;;;9.20;99.90;;;;;;5073804;28;20190;-76
2020/12/16 00:50:54;;;;;;;1.10;1.10;;;9.30;99.90;;;;;;5056166;28;20169;-76
2020/12/16 00:53:19;;;;;;;2.15;1.95;;;9.30;99.90;;;;;;5073620;28;20237;-76
2020/12/16 00:55:45;;;;;;;4.88;1.77;;;9.20;99.90;;;;;;5073787;28;20194;-76
2020/12/16 00:58:11;;;;;;;1.13;0.70;;;9.30;99.90;;;;;;5074197;28;20169;-76
2020/12/16 01:00:36;;;;;;;0.65;0.65;;;9.30;99.90;;;;;;5073746;28;20626;-76
2020/12/16 01:03:02;;;;;;;3.33;1.55;;;9.40;99.90;;;;;;5073794;28;20175;-76
2020/12/16 01:05:28;;;;;;;1.63;1.40;;;9.40;99.90;;;;;;5073877;28;20197;-76
2020/12/16 01:07:53;;;;;;;2.13;1.42;;;9.40;99.90;;;;;;5073528;28;20517;-76
2020/12/16 01:10:19;;;;;;;2.85;2.50;;;9.40;99.90;;;;;;5073518;28;20644;-76
2020/12/16 01:12:47;;;;;;;1.45;1.35;;;9.50;99.90;;;;;;5073571;28;20255;-77
2020/12/16 01:15:19;;;;;;;1.48;0.95;;;9.40;99.90;;;;;;5073336;28;20643;-77
2020/12/16 01:17:45;;;;;;;2.15;1.95;;;9.50;99.90;;;;;;5073414;28;20190;-76
2020/12/16 01:20:12;;;;;;;11.27;2.08;;;9.40;99.90;;;;;;5073318;28;20159;-76
2020/12/16 01:22:42;;;;;;;2.58;1.55;;;9.50;99.90;;;;;;5073365;28;20209;-76
2020/12/16 01:25:08;;;;;;;10.38;2.38;;;9.50;99.90;;;;;;5072920;28;20206;-76
2020/12/16 01:27:34;;;;;;;2.20;1.17;;;9.60;99.90;;;;;;5073345;28;20630;-78
2020/12/16 01:30:00;;;;;;;1.92;1.00;;;9.60;99.90;;;;;;5073327;28;20194;-75
2020/12/16 01:32:26;;;;;;;1.38;1.35;;;9.50;99.90;;;;;;5073180;28;20167;-77
2020/12/16 01:34:51;;;;;;;2.38;2.17;;;9.50;99.90;;;;;;5073027;28;20218;-77
2020/12/16 01:37:17;;;;;;;0.90;0.73;;;9.50;99.90;;;;;;5073199;28;20249;-77
2020/12/16 01:39:43;;;;;;;0.93;0.93;;;9.50;99.90;;;;;;5055126;28;20174;-77
2020/12/16 01:42:08;;;;;;;7.53;3.70;;;9.50;99.90;;;;;;5073190;28;20245;-77
2020/12/16 01:44:34;;;;;;;1.83;1.73;;;9.50;99.90;;;;;;5072916;28;20218;-77
2020/12/16 01:47:01;;;;;;;0.52;0.52;;;9.40;99.90;;;;;;5073193;28;20173;-77
2020/12/16 01:49:27;;;;;;;0.98;0.93;;;9.40;99.90;;;;;;5073847;28;20159;-78
2020/12/16 01:51:55;;;;;;;1.08;1.08;;;9.50;99.90;;;;;;5055591;28;20257;-77
2020/12/16 01:54:24;;;;;;;1.05;0.95;;;9.60;99.90;;;;;;5055402;28;20195;-76
2020/12/16 01:56:51;;;;;;;3.15;2.40;;;9.60;99.90;;;;;;5073469;28;20166;-77
2020/12/16 01:59:17;;;;;;;3.10;2.35;;;9.60;99.90;;;;;;5073195;28;20201;-77
2020/12/16 02:01:47;;;;;;;0.98;0.98;;;9.60;99.90;;;;;;5073071;28;20186;-77
2020/12/16 02:04:13;;;;;;;1.77;1.63;;;9.50;99.90;;;;;;5073338;28;20213;-77
2020/12/16 02:06:41;;;;;;;1.73;1.08;;;9.50;99.90;;;;;;5072882;28;20205;-77
2020/12/16 02:09:09;;;;;;;1.35;1.25;;;9.50;99.90;;;;;;5072867;28;20637;-77
2020/12/16 02:11:36;;;;;;;1.02;1.02;;;9.50;99.90;;;;;;5073025;28;20628;-77
2020/12/16 02:14:07;;;;;;;1.27;1.17;;;9.50;99.90;;;;;;5072651;28;20548;-76
2020/12/16 02:16:35;;;;;;;5.38;2.13;;;9.60;99.90;;;;;;5072862;28;20166;-77
2020/12/16 02:19:01;;;;;;;0.73;0.73;;;9.60;99.90;;;;;;5072906;28;20534;-76
2020/12/16 02:21:28;;;;;;;1.48;1.08;;;9.60;99.90;;;;;;5054984;28;20166;-76
2020/12/16 02:24:10;;;;;;;1.02;0.98;;;9.60;99.90;;;;;;5072566;28;20202;-75
2020/12/16 02:26:38;;;;;;;0.68;0.52;;;9.60;99.90;;;;;;5072732;28;20158;-75
2020/12/16 02:29:05;;;;;;;3.03;0.75;;;9.60;99.90;;;;;;5072680;28;20308;-77
2020/12/16 02:31:34;;;;;;;1.30;1.23;;;9.60;99.90;;;;;;5072825;28;20646;-77
2020/12/16 02:34:00;;;;;;;0.95;0.95;;;9.60;99.90;;;;;;5072507;28;20304;-77
2020/12/16 02:36:26;;;;;;;1.23;1.05;;;9.60;99.90;;;;;;5072816;28;20233;-78
2020/12/16 02:38:51;;;;;;;3.13;2.20;;;9.50;99.90;;;;;;5076540;28;20170;-76
2020/12/16 02:41:18;;;;;;;0.68;0.68;;;9.50;99.90;;;;;;5076520;28;20159;-76
2020/12/16 02:43:44;;;;;;;3.58;1.55;;;9.50;99.90;;;;;;5076448;28;20206;-77
2020/12/16 02:46:09;;;;;;;3.80;1.35;;;9.60;99.90;;;;;;5076287;28;20170;-77
2020/12/16 02:48:35;;;;;;;0.95;0.95;;;9.60;99.90;;;;;;5076399;28;20221;-76
2020/12/16 02:51:01;;;;;;;2.17;1.98;;;9.70;99.90;;;;;;5076673;28;20609;-79
2020/12/16 02:53:27;;;;;;;0.93;0.93;;;9.60;99.90;;;;;;5076331;28;20190;-75
2020/12/16 02:55:52;;;;;;;2.00;0.93;;;9.40;99.90;;;;;;5076415;28;20166;-76
2020/12/16 02:58:18;;;;;;;2.53;2.03;;;9.30;99.90;;;;;;5076439;28;20686;-79
2020/12/16 03:00:43;;;;;;;1.20;0.95;;;8.90;99.90;;;;;;5080524;28;20227;-85
2020/12/16 03:03:09;;;;;;;0.43;0.43;;;8.90;99.90;;;;;;5045922;28;20178;-75
2020/12/16 03:05:34;;;;;;;2.72;1.10;;;9.10;99.90;;;;;;5076067;28;20519;-77
2020/12/16 03:08:00;;;;;;;1.70;1.15;;;9.00;99.90;;;;;;5076266;28;20539;-77
2020/12/16 03:10:26;;;;;;;5.88;1.20;;;9.10;99.90;;;;;;5076053;28;20252;-76
2020/12/16 03:12:51;;;;;;;1.02;0.95;;;9.30;99.90;;;;;;5076031;28;20173;-77
2020/12/16 03:15:17;;;;;;;0.80;0.80;;;9.40;99.90;;;;;;5076088;28;20186;-75
2020/12/16 03:17:42;;;;;;;0.63;0.63;;;9.40;99.90;;;;;;5075855;28;20165;-76
2020/12/16 03:20:08;;;;;;;1.98;1.88;;;9.40;99.90;;;;;;5075837;28;20250;-77
2020/12/16 03:22:34;;;;;;;0.50;0.50;;;9.40;99.90;;;;;;5075908;28;20285;-75
2020/12/16 03:24:59;;;;;;;1.10;1.00;;;9.30;99.90;;;;;;5075528;28;21049;-76
2020/12/16 03:27:25;;;;;;;1.77;0.77;;;9.30;99.90;;;;;;5076125;28;20224;-77
2020/12/16 03:29:50;;;;;;;3.13;1.45;;;9.40;99.90;;;;;;5075685;28;20177;-76
2020/12/16 03:32:16;;;;;;;0.40;0.40;;;9.30;99.90;;;;;;5057561;28;20201;-76
2020/12/16 03:34:41;;;;;;;1.58;1.35;;;9.40;99.90;;;;;;5057508;28;20742;-76
2020/12/16 03:37:08;;;;;;;0.63;0.63;;;9.50;99.90;;;;;;5057586;28;20265;-76
2020/12/16 03:39:33;;;;;;;3.72;0.65;;;9.50;99.90;;;;;;5075365;28;20521;-76
2020/12/16 03:41:59;;;;;;;4.70;0.77;;;9.50;99.90;;;;;;5076111;28;20230;-76
2020/12/16 03:44:24;;;;;;;0.95;0.77;;;9.30;99.90;;;;;;5075330;28;20213;-76
2020/12/16 03:46:51;;;;;;;0.50;0.50;;;9.30;99.90;;;;;;5075457;28;20163;-76
2020/12/16 03:49:18;;;;;;;0.63;0.63;;;9.30;99.90;;;;;;5075167;28;20174;-77
2020/12/16 03:51:51;;;;;;;11.68;1.15;;;9.40;99.90;;;;;;5075346;28;20192;-77
2020/12/16 03:54:17;;;;;;;2.30;2.10;;;9.40;99.90;;;;;;5075284;28;20187;-77
2020/12/16 03:56:42;;;;;;;0.43;0.43;;;9.40;99.90;;;;;;5075052;28;20167;-76
2020/12/16 03:59:08;;;;;;;0.35;0.35;;;9.30;99.90;;;;;;5075256;28;20170;-76
2020/12/16 04:01:33;;;;;;;0.20;0.20;;;9.30;99.90;;;;;;5075194;28;20166;-76
2020/12/16 04:04:01;;;;;;;0.10;0.10;;;9.30;99.90;;;;;;5075193;28;20206;-77
2020/12/16 04:06:27;;;;;;;0.35;0.35;;;9.40;99.90;;;;;;5074840;28;20250;-77
2020/12/16 04:08:53;;;;;;;0.40;0.40;;;9.30;99.90;;;;;;5074842;28;20577;-77
2020/12/16 04:11:18;;;;;;;0.68;0.68;;;9.40;99.90;;;;;;5075145;28;20162;-76
2020/12/16 04:13:45;;;;;;;0.68;0.68;;;9.40;99.90;;;;;;5056634;28;20629;-77
2020/12/16 04:16:16;;;;;;;0.30;0.30;;;9.30;99.90;;;;;;5074970;28;20198;-77
2020/12/16 04:18:42;;;;;;;0.22;0.22;;;9.20;99.90;;;;;;5075060;28;20155;-77
2020/12/16 04:21:08;;;;;;;0.88;0.88;;;9.20;99.90;;;;;;5074968;28;20163;-78
2020/12/16 04:23:34;;;;;;;0.30;0.30;;;9.10;99.90;;;;;;5074473;28;20206;-77
2020/12/16 04:26:00;;;;;;;2.40;1.65;;;9.20;99.90;;;;;;5074710;28;20171;-77
2020/12/16 04:28:26;;;;;;;0.85;0.85;;;9.20;99.90;;;;;;5074381;28;20151;-77
2020/12/16 04:30:52;;;;;;;0.88;0.88;;;9.20;99.90;;;;;;5074577;28;20159;-76
2020/12/16 04:33:17;;;;;;;0.93;0.40;;;9.30;99.90;;;;;;5074134;28;20206;-75
2020/12/16 04:35:43;;;;;;;2.92;1.00;;;9.20;99.90;;;;;;5074384;28;20552;-75
2020/12/16 04:38:09;;;;;;;2.17;1.17;;;9.20;99.90;;;;;;5074358;28;20191;-77
2020/12/16 04:40:34;;;;;;;0.68;0.68;;;9.20;99.90;;;;;;5074120;28;20212;-76
2020/12/16 04:43:23;;;;;;;0.43;0.43;;;9.20;99.90;;;;;;5074295;28;20166;-76
2020/12/16 04:45:51;;;;;;;0.75;0.75;;;9.20;99.90;;;;;;5074204;28;20630;-76
2020/12/16 04:48:17;;;;;;;0.93;0.93;;;9.30;99.90;;;;;;5074106;28;20622;-76
2020/12/16 04:50:45;;;;;;;1.35;1.02;;;9.30;99.90;;;;;;5056115;28;20170;-75
2020/12/16 04:53:13;;;;;;;0.80;0.80;;;9.20;99.90;;;;;;5073880;28;20250;-76
2020/12/16 04:55:40;;;;;;;1.13;0.77;;;9.30;99.90;;;;;;5073804;28;20187;-76
2020/12/16 04:58:07;;;;;;;2.83;1.08;;;9.40;99.90;;;;;;5073866;28;20556;-76
2020/12/16 05:00:33;;;;;;;1.23;1.13;;;9.30;99.90;;;;;;5073178;28;20247;-76
2020/12/16 05:03:07;;;;;;;3.53;2.15;;;9.10;99.90;;;;;;5073737;28;20193;-76
2020/12/16 05:05:33;;;;;;;0.50;0.50;;;8.90;99.90;;;;;;5055358;28;20210;-77
2020/12/16 05:08:07;;;;;;;0.40;0.40;;;8.80;99.90;;;;;;5073564;28;20215;-76
2020/12/16 05:10:38;;;;;;;0.95;0.95;;;8.90;99.90;;;;;;5073453;28;20166;-76
2020/12/16 05:13:13;;;;;;;0.80;0.80;;;9.00;99.90;;;;;;5073631;28;20174;-76
2020/12/16 05:15:40;;;;;;;3.30;1.20;;;8.90;99.90;;;;;;5073371;28;20272;-76
2020/12/16 05:18:10;;;;;;;3.05;1.65;;;8.90;99.90;;;;;;5073753;28;20151;-75
2020/12/16 05:20:38;;;;;;;4.47;2.25;;;8.70;99.90;;;;;;5073275;28;20285;-75
2020/12/16 05:23:05;;;;;;;1.10;1.10;;;8.50;99.90;;;;;;5072991;28;20239;-76
2020/12/16 05:25:31;;;;;;;12.90;2.60;;;8.40;99.90;;;;;;5055456;28;20194;-74
2020/12/16 05:27:57;;;;;;;1.75;1.65;;;8.20;99.90;;;;;;5073351;28;20154;-76
2020/12/16 05:30:23;;;;;;;1.02;1.02;;;8.20;99.90;;;;;;5073210;28;20216;-75
2020/12/16 05:32:49;;;;;;;2.38;0.88;;;8.40;99.90;;;;;;5073322;28;20162;-75
2020/12/16 05:35:32;;;;;;;1.75;0.75;;;8.40;99.90;;;;;;5054488;28;20230;-76
2020/12/16 05:38:09;;;;;;;4.28;0.80;;;8.50;99.90;;;;;;5073299;28;20200;-76
2020/12/16 05:40:40;;;;;;;1.95;0.98;;;8.60;99.90;;;;;;5073151;28;20497;-76
2020/12/16 05:43:07;;;;;;;1.25;1.17;;;8.60;99.90;;;;;;5072846;28;20239;-76
2020/12/16 05:45:38;;;;;;;0.22;0.22;;;8.60;99.90;;;;;;5072940;28;20194;-76
2020/12/16 05:48:08;;;;;;;1.95;1.00;;;8.70;99.90;;;;;;5072956;28;20179;-77
2020/12/16 05:50:44;;;;;;;0.98;0.70;;;8.70;99.90;;;;;;5073020;28;20629;-77
2020/12/16 05:53:18;;;;;;;0.35;0.35;;;8.70;99.90;;;;;;5073139;28;20189;-77
2020/12/16 05:55:49;;;;;;;0.40;0.40;;;8.70;99.90;;;;;;5072842;28;20240;-77
2020/12/16 05:58:16;;;;;;;0.65;0.65;;;8.60;99.90;;;;;;5073041;28;20159;-76
2020/12/16 06:00:47;;;;;;;0.95;0.95;;;8.40;99.90;;;;;;5072946;28;20167;-76
2020/12/16 06:03:21;;;;;;;0.55;0.55;;;8.30;99.90;;;;;;5054706;28;20253;-77
2020/12/16 06:05:54;;;;;;;0.90;0.90;;;8.20;99.90;;;;;;5072655;28;20281;-76
2020/12/16 06:08:21;;;;;;;0.50;0.50;;;8.30;99.90;;;;;;5073015;28;20155;-77
2020/12/16 06:10:49;;;;;;;14.85;1.55;;;8.50;99.90;;;;;;5054605;28;20601;-75
2020/12/16 06:13:16;;;;;;;1.20;1.10;;;8.60;99.90;;;;;;5057595;28;20204;-75
2020/12/16 06:16:05;;;;;;;0.90;0.90;;;8.70;99.90;;;;;;5076501;28;20194;-78
2020/12/16 06:18:37;;;;;;;0.70;0.70;;;8.70;99.90;;;;;;5044046;28;20178;-76
2020/12/16 06:21:04;;;;;;;0.90;0.90;;;8.60;99.90;;;;;;5077027;28;20170;-76
2020/12/16 06:23:41;;;;;;;0.55;0.55;;;8.70;99.90;;;;;;5076443;28;20569;-77
2020/12/16 06:26:15;;;;;;;2.75;1.35;;;8.70;99.90;;;;;;5058911;28;20174;-76
2020/12/16 06:28:42;;;;;;;0.60;0.60;;;8.60;99.90;;;;;;5076688;28;20163;-77
2020/12/16 06:31:27;;;;;;;0.70;0.70;;;8.60;99.90;;;;;;5076293;28;20174;-76
2020/12/16 06:34:00;;;;;;;0.45;0.43;;;8.70;99.90;;;;;;5076254;28;20241;-76
2020/12/16 06:36:38;;;;;;;0.68;0.68;;;8.70;99.90;;;;;;5076410;28;20292;-76
2020/12/16 06:39:18;;;;;;;0.45;0.45;;;8.70;99.90;;;;;;5076209;28;20158;-75
2020/12/16 06:41:57;;;;;;;0.57;0.57;;;8.70;99.90;;;;;;5076269;28;20193;-74
2020/12/16 06:44:25;;;;;;;1.48;1.38;;;8.90;99.90;;;;;;5075942;28;20213;-75
2020/12/16 06:46:52;;;;;;;0.40;0.40;;;8.90;99.90;;;;;;5076418;28;20155;-76
2020/12/16 06:49:18;;;;;;;0.65;0.65;;;8.90;99.90;;;;;;5058088;28;20622;-74
2020/12/16 06:51:47;;;;;;;0.43;0.43;;;9.00;99.90;;;;;;5075817;28;20246;-76
2020/12/16 06:54:17;;;;;;;0.40;0.40;;;8.70;99.90;;;;;;5075749;28;20183;-77
2020/12/16 06:56:44;;;;;;;1.10;0.70;;;8.70;99.90;;;;;;5075804;28;20173;-76
2020/12/16 06:59:14;;;;;;;0.75;0.75;;;8.60;99.90;;;;;;5076098;28;20518;-76
2020/12/16 07:01:40;;;;;;;13.63;1.75;;;8.40;99.90;;;;;;5075482;28;20178;-77
2020/12/16 07:04:12;;;;;;;0.63;0.63;;;8.50;99.90;;;;;;5075987;28;20754;-76
2020/12/16 07:06:42;;;;;;;0.38;0.38;;;8.60;99.90;;;;;;5075171;28;20170;-77
2020/12/16 07:09:23;;;;;;;0.73;0.70;;;8.60;99.90;;;;;;5075501;28;20198;-76
2020/12/16 07:11:54;;;;;;;1.02;0.82;;;8.50;99.90;;;;;;5075904;28;20147;-77
2020/12/16 07:14:25;;;;;;;0.45;0.45;;;8.60;99.90;;;;;;5075936;28;20261;-77
2020/12/16 07:16:51;;;;;;;0.50;0.50;;;8.60;99.90;;;;;;5075699;28;20170;-76
2020/12/16 07:19:28;;;;;;;1.52;1.27;;;8.60;99.90;;;;;;5075646;28;20171;-76
2020/12/16 07:21:55;;;;;;;0.55;0.55;;;8.50;99.90;;;;;;5075358;28;20245;-76
2020/12/16 07:24:22;;;;;;;4.38;1.20;;;8.50;99.90;;;;;;5074959;28;20206;-77
2020/12/16 07:26:53;;;;;;;4.78;1.38;;;8.60;99.90;;;;;;5075468;28;20638;-77
2020/12/16 07:29:39;;;;;;;0.80;0.80;;;8.60;99.90;;;;;;5056900;28;20174;-75
2020/12/16 07:32:13;;;;;;;0.22;0.22;;;8.80;99.90;;;;;;5074881;28;20185;-79
2020/12/16 07:34:44;;;;;;;0.38;0.38;;;8.70;99.90;;;;;;5074780;28;20230;-78
2020/12/16 07:37:10;;;;;;;0.60;0.60;;;8.70;99.90;;;;;;5074955;28;20175;-77
2020/12/16 07:39:48;;;;;;;0.38;0.38;;;8.70;99.90;;;;;;5074955;28;20219;-78
2020/12/16 07:42:43;;;;;;;0.40;0.40;;;8.70;99.90;;;;;;5069945;28;20181;-79
2020/12/16 07:45:09;;;;;;;0.68;0.68;;;8.70;99.90;;;;;;5035925;28;20312;-78
2020/12/16 07:47:35;;;;;;;0.30;0.30;;;8.80;99.90;;;;;;5074971;28;20167;-76
2020/12/16 07:50:02;;;;;;;1.02;1.02;;;8.80;99.90;;;;;;5074787;28;20515;-77
2020/12/16 07:52:31;;;;;;;19.67;1.02;;;8.70;99.90;;;;;;5074904;28;20170;-76
2020/12/16 07:54:59;;;;;;;0.60;0.60;;;8.70;99.90;;;;;;5075072;28;20194;-77
2020/12/16 07:57:35;;;;;;;0.45;0.45;;;8.70;99.90;;;;;;5074625;28;20569;-77
2020/12/16 08:00:02;;;;;;;1.65;1.55;;;8.90;99.90;;;;;;5074748;28;20504;-78
2020/12/16 08:02:28;;;;;;;1.10;1.10;;;8.80;99.90;;;;;;5074723;28;20220;-75
2020/12/16 08:05:03;;;;;;;0.52;0.52;;;8.70;99.90;;;;;;5075064;28;20210;-76
2020/12/16 08:07:29;;;;;;;0.40;0.40;;;8.80;99.90;;;;;;5074491;28;20231;-78
2020/12/16 08:09:59;;;;;;;0.35;0.35;;;8.90;99.90;;;;;;5074524;28;20626;-77
2020/12/16 08:12:28;;;;;;;1.63;1.20;;;9.00;99.90;;;;;;5074364;28;20156;-77
2020/12/16 08:15:15;;;;;;;2.20;0.93;;;9.00;99.90;;;;;;5056436;28;20550;-81
2020/12/16 08:17:41;;;;;;;0.77;0.77;;;9.10;99.90;;;;;;5074752;28;20178;-77
2020/12/16 08:20:18;;;;;;;0.60;0.60;;;9.10;99.90;;;;;;5071896;28;20166;-77
2020/12/16 08:22:47;;;;;;;0.65;0.65;;;9.00;99.90;;;;;;5063459;28;20167;-76
2020/12/16 08:25:14;;;;;;;0.30;0.30;;;9.00;99.90;;;;;;5060052;28;20222;-77
2020/12/16 08:27:47;;;;;;;1.58;0.68;;;9.00;99.90;;;;;;5054498;28;20160;-77
2020/12/16 08:30:18;;;;;;;0.40;0.40;;;8.90;99.90;;;;;;5054406;28;20198;-76
2020/12/16 08:32:59;;;;;;;0.93;0.93;;;9.00;99.90;;;;;;5036064;28;20262;-77
2020/12/16 08:35:48;;;;;;;0.73;0.73;;;9.20;99.90;;;;;;5035306;28;20634;-79
2020/12/16 08:38:31;;;;;;;0.30;0.30;;;9.30;99.90;;;;;;5053766;28;20156;-78
2020/12/16 08:40:58;;;;;;;0.90;0.60;;;9.50;99.90;;;;;;5054339;28;20239;-78
2020/12/16 08:43:37;;;;;;;0.98;0.63;;;9.40;99.90;;;;;;5035460;28;20618;-76
2020/12/16 08:46:14;;;;;;;0.35;0.35;;;9.40;99.90;;;;;;5053695;28;20215;-77
2020/12/16 08:48:59;;;;;;;0.20;0.20;;;9.30;99.90;;;;;;5035866;28;20170;-78
2020/12/16 08:51:36;;;;;;;0.50;0.50;;;9.30;99.90;;;;;;5053981;28;20620;-80
2020/12/16 08:54:17;;;;;;;0.98;0.98;;;9.40;99.90;;;;;;5035698;28;20186;-80
2020/12/16 08:56:52;;;;;;;0.68;0.68;;;9.30;99.90;;;;;;5035634;28;20309;-77
2020/12/16 08:59:31;;;;;;;0.60;0.45;;;9.30;99.90;;;;;;5053625;28;20185;-77
2020/12/16 09:02:02;;;;;;;0.85;0.85;;;9.30;99.90;;;;;;5053694;28;20234;-80
2020/12/16 09:04:34;;;;;;;4.55;0.73;;;9.40;99.90;;;;;;5035825;28;20222;-77
2020/12/16 09:07:06;;;;;;;0.68;0.68;;;9.40;99.90;;;;;;5053590;28;20183;-77
2020/12/16 09:09:33;;;;;;;0.63;0.60;;;9.40;99.90;;;;;;5053187;28;20164;-79
2020/12/16 09:12:00;;;;;;;0.43;0.43;;;9.50;99.90;;;;;;5053331;28;20166;-78
2020/12/16 09:14:26;;;;;;;0.20;0.20;;;9.50;99.90;;;;;;5053234;28;20186;-77
2020/12/16 09:16:52;;;;;;;0.43;0.43;;;9.60;99.90;;;;;;5053406;28;20624;-78
2020/12/16 09:19:23;;;;;;;0.57;0.40;;;9.70;99.90;;;;;;5053237;28;20580;-78
2020/12/16 09:21:49;;;;;;;1.33;1.23;;;9.70;99.90;;;;;;5052782;28;20169;-77
2020/12/16 09:24:20;;;;;;;0.30;0.30;;;9.70;99.90;;;;;;5053065;28;20229;-77
2020/12/16 09:26:46;;;;;;;0.60;0.60;;;9.70;99.90;;;;;;5035237;28;20163;-77
2020/12/16 09:29:25;;;;;;;0.30;0.30;;;9.70;99.90;;;;;;5053065;28;20229;-77
2020/12/16 09:32:07;;;;;;;0.65;0.50;;;9.90;99.90;;;;;;5052689;28;20167;-77
2020/12/16 09:34:50;;;;;;;0.70;0.70;;;9.90;99.90;;;;;;5053284;28;20334;-77
2020/12/16 09:37:28;;;;;;;0.95;0.95;;;10.00;99.90;;;;;;5053278;28;20626;-77
2020/12/16 09:40:11;;;;;;;0.60;0.60;;;10.00;99.90;;;;;;5052214;28;20477;-76
2020/12/16 09:42:37;;;;;;;0.35;0.35;;;10.00;99.90;;;;;;5052955;28;20190;-77
2020/12/16 09:45:15;;;;;;;0.30;0.30;;;10.00;99.90;;;;;;5052702;28;20360;-78
2020/12/16 09:47:45;;;;;;;0.70;0.70;;;10.00;99.90;;;;;;5034748;28;20273;-80
2020/12/16 09:50:13;;;;;;;0.43;0.43;;;10.10;99.90;;;;;;5035011;28;20159;-78
2020/12/16 09:52:39;;;;;;;0.82;0.82;;;10.20;99.90;;;;;;5053319;28;20167;-76
2020/12/16 09:55:22;;;;;;;0.52;0.52;;;10.30;99.90;;;;;;5053089;28;20179;-76
2020/12/16 09:58:17;;;;;;;0.30;0.30;;;10.30;99.90;;;;;;5052908;28;20151;-75
2020/12/16 10:00:43;;;;;;;0.20;0.20;;;10.40;99.90;;;;;;5031824;28;20717;-77
2020/12/16 10:03:11;;;;;;;0.20;0.20;;;10.60;99.90;;;;;;5052717;28;20262;-77
2020/12/16 10:05:38;;;;;;;0.28;0.28;;;10.60;99.90;;;;;;5034797;28;20211;-76
2020/12/16 10:08:11;;;;;;;0.90;0.90;;;10.40;99.90;;;;;;5052772;28;20205;-75
2020/12/16 10:10:37;;;;;;;8.48;0.85;;;10.30;99.90;;;;;;5052641;28;20167;-75
2020/12/16 10:13:02;;;;;;;0.70;0.70;;;10.30;99.90;;;;;;5052645;28;20169;-75
2020/12/16 10:15:28;;;;;;;0.50;0.50;;;10.40;99.90;;;;;;5052430;28;20672;-75
2020/12/16 10:17:55;;;;;;;0.30;0.30;;;10.50;99.90;;;;;;5052679;28;20166;-74
2020/12/16 10:20:21;;;;;;;1.05;0.95;;;10.60;99.90;;;;;;5052734;28;20194;-75
2020/12/16 10:22:47;;;;;;;0.63;0.57;;;10.60;99.90;;;;;;5052565;28;20164;-75
2020/12/16 10:25:13;;;;;;;0.40;0.40;;;10.50;99.90;;;;;;5034455;28;20215;-76
2020/12/16 10:27:39;;;;;;;0.20;0.20;;;10.50;99.90;;;;;;5052647;28;20209;-76
2020/12/16 10:30:05;;;;;;;0.65;0.63;;;10.70;99.90;;;;;;5052239;28;20556;-78
2020/12/16 10:32:31;;;;;;;7.13;1.35;;;10.80;99.90;;;;;;5052264;28;20620;-78
2020/12/16 10:34:57;;;;;;;0.47;0.47;;;10.90;99.90;;;;;;5052040;28;20215;-78
2020/12/16 10:37:24;;;;;;;0.52;0.52;;;10.90;99.90;;;;;;5034620;28;20543;-78
2020/12/16 10:39:50;;;;;;;0.30;0.30;;;11.00;99.90;;;;;;5034215;28;20178;-78
2020/12/16 10:42:16;;;;;;;0.30;0.30;;;11.00;99.90;;;;;;5034252;28;20205;-79
2020/12/16 10:44:43;;;;;;;1.52;1.05;;;11.00;99.90;;;;;;5034384;28;20720;-83
2020/12/16 10:47:08;;;;;;;0.65;0.65;;;11.20;99.90;;;;;;5034974;28;20526;-84
2020/12/16 10:49:35;;;;;;;0.63;0.57;;;11.10;99.90;;;;;;5034631;28;20261;-76
2020/12/16 10:52:09;;;;;;;0.45;0.45;;;11.10;99.90;;;;;;5052018;28;20633;-80
2020/12/16 10:54:35;;;;;;;1.85;0.82;;;11.20;99.90;;;;;;5051765;28;20198;-75
2020/12/16 10:57:02;;;;;;;0.20;0.20;;;11.10;99.90;;;;;;5051971;28;20155;-76
2020/12/16 10:59:29;;;;;;;0.50;0.50;;;11.20;99.90;;;;;;5054696;28;20175;-75
2020/12/16 11:01:58;;;;;;;0.28;0.28;;;11.20;99.90;;;;;;5055522;28;20147;-75
2020/12/16 11:04:25;;;;;;;0.32;0.32;;;11.20;99.90;;;;;;5055746;28;20230;-76
2020/12/16 11:06:51;;;;;;;0.30;0.30;;;11.10;99.90;;;;;;5037566;28;20167;-76
2020/12/16 11:09:18;;;;;;;0.57;0.57;;;11.00;99.90;;;;;;5055111;28;20527;-75
2020/12/16 11:11:46;;;;;;;0.22;0.22;;;11.10;99.90;;;;;;5055304;28;20666;-75
2020/12/16 11:14:12;;;;;;;0.22;0.22;;;11.10;99.90;;;;;;5054737;28;20671;-76
2020/12/16 11:16:40;;;;;;;0.63;0.63;;;11.10;99.90;;;;;;5054997;28;20159;-76
2020/12/16 11:19:06;;;;;;;0.88;0.88;;;11.10;99.90;;;;;;5055105;28;20175;-77
2020/12/16 11:21:49;;;;;;;0.80;0.73;;;11.00;99.90;;;;;;5037344;28;20159;-78
2020/12/16 11:24:17;;;;;;;0.50;0.50;;;11.10;99.90;;;;;;5055373;28;20206;-77
2020/12/16 11:26:46;;;;;;;0.43;0.43;;;11.10;99.90;;;;;;5055384;28;20948;-78
2020/12/16 11:29:14;;;;;;;18.75;1.30;;;11.20;99.90;;;;;;5055177;28;20712;-78
2020/12/16 11:32:06;;;;;;;6.82;1.65;;;11.30;99.90;;;;;;5055901;28;20170;-86
2020/12/16 11:34:32;;;;;;;0.40;0.40;;;11.20;99.90;;;;;;5052187;28;20694;-88
2020/12/16 11:37:00;;;;;;;8.65;2.60;;;11.20;99.90;;;;;;5040638;28;20171;-87
2020/12/16 11:39:27;;;;;;;0.50;0.50;;;11.30;99.90;;;;;;5037618;28;20171;-78
2020/12/16 11:41:54;;;;;;;0.40;0.40;;;11.10;99.90;;;;;;5055295;28;20246;-78
2020/12/16 11:44:22;;;;;;;1.67;0.70;;;11.10;99.90;;;;;;5055578;28;20325;-76
2020/12/16 11:46:48;;;;;;;0.63;0.35;;;11.30;99.90;;;;;;5055243;28;20545;-79
2020/12/16 11:49:15;;;;;;;1.95;0.60;;;11.40;99.90;;;;;;5055721;28;20186;-80
2020/12/16 11:51:41;;;;;;;0.75;0.75;;;11.40;99.90;;;;;;5055319;28;20190;-80
2020/12/16 11:54:06;;;;;;;0.60;0.60;;;11.50;99.90;;;;;;5055942;28;20187;-79
2020/12/16 11:56:33;;;;;;;0.57;0.57;;;11.50;99.90;;;;;;5055473;28;20201;-79
2020/12/16 11:59:00;;;;;;;1.75;0.75;;;11.50;99.90;;;;;;5054921;28;20163;-80
2020/12/16 12:01:26;;;;;;;1.27;0.80;;;11.60;99.90;;;;;;5054567;28;20613;-78
2020/12/16 12:03:51;;;;;;;0.30;0.30;;;11.50;99.90;;;;;;5036977;28;20310;-78
2020/12/16 12:06:17;;;;;;;0.68;0.65;;;11.50;99.90;;;;;;5054326;28;20384;-79
2020/12/16 12:08:43;;;;;;;2.17;1.23;;;11.50;99.90;;;;;;5054356;28;20649;-79
2020/12/16 12:11:11;;;;;;;2.05;1.00;;;11.60;99.90;;;;;;5054283;28;20159;-77
2020/12/16 12:13:39;;;;;;;0.52;0.50;;;11.60;99.90;;;;;;5054352;28;20174;-77
2020/12/16 12:16:06;;;;;;;2.13;0.73;;;11.70;99.90;;;;;;5036284;28;20179;-77
2020/12/16 12:18:32;;;;;;;0.20;0.20;;;11.70;99.90;;;;;;5054651;28;20515;-77
2020/12/16 12:20:58;;;;;;;0.40;0.40;;;11.70;99.90;;;;;;5054190;28;20179;-77
2020/12/16 12:23:23;;;;;;;3.55;0.90;;;11.70;99.90;;;;;;5053801;28;20179;-79
2020/12/16 12:25:49;;;;;;;0.60;0.60;;;11.70;99.90;;;;;;5054064;28;20257;-80
2020/12/16 12:28:14;;;;;;;3.83;0.70;;;11.80;99.90;;;;;;5036334;28;20519;-79
2020/12/16 12:30:40;;;;;;;0.90;0.50;;;11.90;99.90;;;;;;5053885;28;20523;-79
2020/12/16 12:33:05;;;;;;;0.30;0.30;;;11.90;99.90;;;;;;5035915;28;20585;-80
2020/12/16 12:35:31;;;;;;;1.02;1.02;;;11.90;99.90;;;;;;5053894;28;20207;-80
2020/12/16 12:37:56;;;;;;;3.38;1.52;;;11.90;99.90;;;;;;5053777;28;20163;-79
2020/12/16 12:40:22;;;;;;;1.38;1.25;;;11.80;99.90;;;;;;5053966;28;20243;-79
2020/12/16 12:42:47;;;;;;;0.63;0.63;;;11.80;99.90;;;;;;5053765;28;20182;-78
2020/12/16 12:45:13;;;;;;;0.70;0.70;;;12.00;99.90;;;;;;5053515;28;20690;-79
2020/12/16 12:47:51;;;;;;;0.20;0.20;;;12.00;99.90;;;;;;5053656;28;20198;-80
2020/12/16 12:50:20;;;;;;;0.40;0.40;;;12.30;99.90;;;;;;5053513;28;20632;-80
2020/12/16 12:52:46;;;;;;;0.40;0.40;;;12.30;99.90;;;;;;5035512;28;20171;-79
2020/12/16 12:55:12;;;;;;;0.55;0.55;;;12.20;99.90;;;;;;5053789;28;20186;-78
2020/12/16 12:57:41;;;;;;;0.47;0.47;;;12.20;99.90;;;;;;5053270;28;20606;-78
2020/12/16 13:00:11;;;;;;;0.65;0.57;;;12.30;99.90;;;;;;5035627;28;20182;-81
2020/12/16 13:02:37;;;;;;;0.93;0.68;;;12.40;99.90;;;;;;5035300;28;20164;-82